This is the latest recevied weather packets stored in our database for station/object WX4SGA. If no packets are shown the sender has not sent any weather packets the latest 10 day(s).
| Time | Temp. | Humidity | Pressure | Rain* | Wind** | Luminosity | Snow |
|---|---|---|---|---|---|---|---|
| 1787856158 | 30° C | 74% | 1014.6 hPa | 0 mm | - | 391 W/m² | - |
| 1787855853 | 31.11° C | 69% | 1014.6 hPa | 0 mm | - | 480 W/m² | - |
| 1787855552 | 31.11° C | 68% | 1014.6 hPa | 0 mm | - | 476 W/m² | - |
| 1787855248 | 31.67° C | 70% | 1014.6 hPa | 0 mm | - | 239 W/m² | - |
| 1787854943 | 32.22° C | 70% | 1014.9 hPa | 0 mm | - | 155 W/m² | - |
| 1787854639 | 33.33° C | 63% | 1015.2 hPa | 0 mm | - | 224 W/m² | - |
| 1787854334 | 32.78° C | 64% | 1014.9 hPa | 0 mm | - | 666 W/m² | - |
| 1787854034 | 32.22° C | 65% | 1015.2 hPa | 0 mm | - | 431 W/m² | - |
| 1787853727 | 33.89° C | 62% | 1015.2 hPa | 0 mm | - | 421 W/m² | - |
| 1787853426 | 33.33° C | 63% | 1015.2 hPa | 0 mm | - | 791 W/m² | - |
| 1787853126 | 32.78° C | 68% | 1015.2 hPa | 0 mm | - | 841 W/m² | - |
| 1787852820 | 32.78° C | 65% | 1015.2 hPa | 0 mm | - | 313 W/m² | - |
| 1787852520 | 32.78° C | 63% | 1015.2 hPa | 0 mm | - | 826 W/m² | - |
| 1787852214 | 33.33° C | 63% | 1015.2 hPa | 0 mm | - | 625 W/m² | - |
| 1787851909 | 32.78° C | 64% | 1015.2 hPa | 0 mm | - | 825 W/m² | - |
| 1787851608 | 32.78° C | 65% | 1015.6 hPa | 0 mm | - | 813 W/m² | - |
| 1787851303 | 32.22° C | 67% | 1015.6 hPa | 0 mm | - | 811 W/m² | - |
| 1787850998 | 32.22° C | 66% | 1015.6 hPa | 0 mm | - | 782 W/m² | - |
| 1787850695 | 32.78° C | 67% | 1015.6 hPa | 0 mm | - | 808 W/m² | - |
| 1787850390 | 32.78° C | 67% | 1015.6 hPa | 0 mm | - | 410 W/m² | - |
| 1787850086 | 32.22° C | 69% | 1015.9 hPa | 0 mm | - | 821 W/m² | - |
| 1787849785 | 32.22° C | 68% | 1015.9 hPa | 0 mm | - | 810 W/m² | - |
| 1787849480 | 32.78° C | 66% | 1015.9 hPa | 0 mm | - | 847 W/m² | - |
| 1787849178 | 32.22° C | 65% | 1016.3 hPa | 0 mm | - | 790 W/m² | - |
| 1787848878 | 32.22° C | 66% | 1016.3 hPa | 0 mm | - | 790 W/m² | - |
* Rain latest hour (hover to see other rain measurements)
** Current wind speed in m/s (hover to see current wind gust speed)